Time;durP1;ratioP1;P1;durP2;ratioP2;P2;SDS_P1;SDS_P2;PMS_P1;PMS_P2;Temp;Humidity;BMP_temperature;BMP_pressure;BME280_temperature;BME280_humidity;BME280_pressure;Samples;Min_cycle;Max_cycle;Signal;HPM_P1;HPM_P2
2022/10/24 00:01:33;;;;;;;1.63;1.63;;;20.40;75.20;;;;;;4979245;28;45251;-72
2022/10/24 00:04:01;;;;;;;1.70;1.70;;;20.40;75.10;;;;;;4971477;28;43414;-72
2022/10/24 00:06:29;;;;;;;1.50;1.50;;;20.40;75.30;;;;;;4980611;28;43934;-71
2022/10/24 00:08:57;;;;;;;1.83;1.73;;;20.30;75.60;;;;;;4979440;28;43995;-70
2022/10/24 00:11:26;;;;;;;1.50;1.50;;;20.30;75.90;;;;;;4978417;28;43449;-72
2022/10/24 00:13:55;;;;;;;1.60;1.60;;;20.30;75.80;;;;;;4974874;28;43594;-72
2022/10/24 00:16:23;;;;;;;1.60;1.60;;;20.30;75.70;;;;;;4972290;28;43673;-72
2022/10/24 00:18:52;;;;;;;1.70;1.70;;;20.20;75.60;;;;;;4985537;28;43602;-71
2022/10/24 00:21:20;;;;;;;1.60;1.60;;;20.20;75.80;;;;;;4976192;28;43416;-71
2022/10/24 00:23:48;;;;;;;1.70;1.70;;;20.20;76.20;;;;;;4985115;28;43383;-73
2022/10/24 00:26:16;;;;;;;1.67;1.67;;;20.30;76.10;;;;;;4982733;28;43596;-72
2022/10/24 00:28:43;;;;;;;1.80;1.80;;;20.40;75.60;;;;;;4981006;28;43839;-71
2022/10/24 00:31:13;;;;;;;1.80;1.80;;;20.50;75.10;;;;;;4976543;28;43526;-71
2022/10/24 00:33:41;;;;;;;1.50;1.50;;;20.60;74.60;;;;;;4981618;28;44372;-72
2022/10/24 00:36:12;;;;;;;1.60;1.60;;;20.70;74.50;;;;;;4974611;28;43416;-71
2022/10/24 00:38:40;;;;;;;1.53;1.53;;;20.60;74.50;;;;;;4982096;28;43594;-72
2022/10/24 00:41:08;;;;;;;1.50;1.50;;;20.60;74.60;;;;;;4980741;28;43420;-71
2022/10/24 00:43:36;;;;;;;1.60;1.60;;;20.50;74.90;;;;;;4979984;28;43459;-72
2022/10/24 00:46:04;;;;;;;1.53;1.53;;;20.40;75.30;;;;;;4978148;28;43398;-72
2022/10/24 00:48:33;;;;;;;1.50;1.50;;;20.40;75.30;;;;;;4977511;28;44191;-72
2022/10/24 00:51:03;;;;;;;1.60;1.60;;;20.40;75.30;;;;;;4978343;28;43460;-71
2022/10/24 00:53:32;;;;;;;1.60;1.60;;;20.40;75.30;;;;;;4980421;28;43392;-70
2022/10/24 00:56:01;;;;;;;1.63;1.63;;;20.30;75.40;;;;;;4976659;28;43584;-72
2022/10/24 00:58:30;;;;;;;1.50;1.50;;;20.30;75.90;;;;;;4975809;28;46134;-72
2022/10/24 01:00:58;;;;;;;1.70;1.70;;;20.30;75.90;;;;;;4977700;28;43462;-70
2022/10/24 01:03:26;;;;;;;1.63;1.63;;;20.20;75.60;;;;;;4977246;28;44139;-71
2022/10/24 01:06:15;;;;;;;1.60;1.60;;;20.20;75.70;;;;;;4980350;28;43383;-71
2022/10/24 01:08:46;;;;;;;1.40;1.40;;;20.20;75.80;;;;;;4969864;28;45709;-71
2022/10/24 01:11:22;;;;;;;1.40;1.40;;;20.20;76.20;;;;;;4977603;28;44254;-70
2022/10/24 01:13:55;;;;;;;1.60;1.60;;;20.30;76.00;;;;;;4997574;28;43456;-71
2022/10/24 01:16:27;;;;;;;1.70;1.70;;;20.40;75.50;;;;;;4974194;28;43364;-73
2022/10/24 01:18:56;;;;;;;1.50;1.50;;;20.60;75.00;;;;;;4979480;28;44065;-71
2022/10/24 01:21:29;;;;;;;1.70;1.70;;;20.70;74.50;;;;;;4976300;28;43494;-71
2022/10/24 01:24:14;;;;;;;1.53;1.53;;;20.70;74.40;;;;;;4972759;28;43541;-71
2022/10/24 01:27:13;;;;;;;1.90;1.50;;;20.60;74.40;;;;;;4977400;28;43460;-72
2022/10/24 01:30:02;;;;;;;1.60;1.60;;;20.50;74.60;;;;;;4975713;28;46363;-71
2022/10/24 01:32:36;;;;;;;1.70;1.70;;;20.40;75.20;;;;;;4977311;28;43456;-72
2022/10/24 01:35:08;;;;;;;1.63;1.57;;;20.40;75.30;;;;;;4989207;28;43454;-70
2022/10/24 01:37:37;;;;;;;1.83;1.83;;;20.40;75.30;;;;;;4984033;28;43633;-71
2022/10/24 01:40:08;;;;;;;1.37;1.37;;;20.30;75.30;;;;;;4970860;28;43596;-72
2022/10/24 01:42:36;;;;;;;1.40;1.40;;;20.30;75.50;;;;;;4993041;28;44098;-71
2022/10/24 01:45:07;;;;;;;1.50;1.50;;;20.30;75.90;;;;;;4983861;28;43487;-71
2022/10/24 01:47:37;;;;;;;1.70;1.70;;;20.30;75.90;;;;;;4988970;28;43563;-71
2022/10/24 01:50:07;;;;;;;1.47;1.47;;;20.30;75.70;;;;;;4980869;28;45674;-73
2022/10/24 01:52:37;;;;;;;1.50;1.50;;;20.30;75.70;;;;;;4975013;28;43465;-70
2022/10/24 01:55:05;;;;;;;1.40;1.40;;;20.20;75.80;;;;;;4983667;28;43410;-71
2022/10/24 01:57:33;;;;;;;1.70;1.60;;;20.20;76.20;;;;;;4982853;28;43500;-71
2022/10/24 02:00:01;;;;;;;1.60;1.60;;;20.20;76.10;;;;;;4985792;28;44365;-71
2022/10/24 02:02:40;;;;;;;1.37;1.37;;;20.40;75.70;;;;;;4984251;28;43892;-73
2022/10/24 02:05:09;;;;;;;1.77;1.77;;;20.50;75.10;;;;;;4986811;28;43492;-72
2022/10/24 02:07:37;;;;;;;1.50;1.50;;;20.60;74.60;;;;;;4986267;28;43634;-71
2022/10/24 02:10:07;;;;;;;1.43;1.43;;;20.60;74.50;;;;;;4977561;28;44044;-71
2022/10/24 02:12:35;;;;;;;1.33;1.33;;;20.60;74.60;;;;;;4976706;28;44315;-72
2022/10/24 02:15:05;;;;;;;1.30;1.30;;;20.50;74.60;;;;;;4983728;28;43967;-71
2022/10/24 02:17:33;;;;;;;1.50;1.50;;;20.40;74.90;;;;;;4984777;28;43889;-71
2022/10/24 02:20:02;;;;;;;1.30;1.30;;;20.40;75.40;;;;;;4976971;28;45569;-71
2022/10/24 02:22:33;;;;;;;1.60;1.60;;;20.40;75.50;;;;;;4987494;28;43557;-71
2022/10/24 02:25:03;;;;;;;1.50;1.50;;;20.30;75.40;;;;;;4986632;28;43434;-71
2022/10/24 02:27:33;;;;;;;1.57;1.57;;;20.30;75.40;;;;;;4982584;28;43589;-71
2022/10/24 02:30:01;;;;;;;1.40;1.40;;;20.20;75.50;;;;;;4990463;28;43608;-71
2022/10/24 02:32:32;;;;;;;1.50;1.50;;;20.20;75.90;;;;;;4988335;28;44097;-72
2022/10/24 02:34:59;;;;;;;1.50;1.40;;;20.30;75.80;;;;;;4980186;28;43377;-71
2022/10/24 02:37:29;;;;;;;1.30;1.30;;;20.40;75.40;;;;;;4984619;28;43370;-71
2022/10/24 02:39:57;;;;;;;1.57;1.57;;;20.40;75.00;;;;;;4982083;28;43826;-73
2022/10/24 02:42:27;;;;;;;1.70;1.70;;;20.50;75.10;;;;;;4990983;28;43353;-73
2022/10/24 02:44:59;;;;;;;1.50;1.50;;;20.40;75.20;;;;;;4991599;28;43419;-71
2022/10/24 02:47:27;;;;;;;1.47;1.47;;;20.40;75.30;;;;;;4987484;28;43441;-71
2022/10/24 02:49:55;;;;;;;1.33;1.33;;;20.40;75.20;;;;;;4982819;28;43994;-71
2022/10/24 02:52:23;;;;;;;1.30;1.30;;;20.40;75.20;;;;;;4976380;28;43935;-71
2022/10/24 02:54:53;;;;;;;1.30;1.30;;;20.30;75.20;;;;;;4981925;28;43393;-71
2022/10/24 02:57:22;;;;;;;1.20;1.20;;;20.30;75.60;;;;;;4982383;28;44065;-71
2022/10/24 02:59:50;;;;;;;1.40;1.40;;;20.30;75.80;;;;;;4973276;28;43974;-71
2022/10/24 03:02:18;;;;;;;1.50;1.50;;;20.30;75.70;;;;;;4992499;28;43696;-71
2022/10/24 03:04:46;;;;;;;1.30;1.30;;;20.30;75.60;;;;;;4984155;28;43472;-71
2022/10/24 03:07:14;;;;;;;1.40;1.40;;;20.20;75.50;;;;;;4979389;28;43555;-70
2022/10/24 03:09:41;;;;;;;1.30;1.30;;;20.20;75.70;;;;;;4978296;28;43878;-71
2022/10/24 03:12:11;;;;;;;1.40;1.40;;;20.20;76.10;;;;;;4987186;28;43436;-71
2022/10/24 03:14:39;;;;;;;1.40;1.40;;;20.20;76.00;;;;;;4977906;28;43520;-71
2022/10/24 03:17:07;;;;;;;1.30;1.30;;;20.30;75.60;;;;;;4980917;28;43490;-72
2022/10/24 03:19:35;;;;;;;1.47;1.47;;;20.50;75.10;;;;;;4981384;28;43863;-71
2022/10/24 03:22:03;;;;;;;1.37;1.37;;;20.60;74.60;;;;;;4986489;28;43572;-71
2022/10/24 03:24:31;;;;;;;1.13;1.13;;;20.60;74.50;;;;;;4987699;28;43963;-71
2022/10/24 03:27:20;;;;;;;1.60;1.60;;;20.60;74.50;;;;;;4974972;28;43404;-71
2022/10/24 03:29:48;;;;;;;1.40;1.40;;;20.50;74.60;;;;;;4989556;28;44021;-72
2022/10/24 03:32:16;;;;;;;1.33;1.33;;;20.40;74.80;;;;;;4979346;28;43370;-72
2022/10/24 03:34:44;;;;;;;1.30;1.30;;;20.40;75.40;;;;;;4990037;28;43436;-70
2022/10/24 03:37:12;;;;;;;1.23;1.23;;;20.40;75.40;;;;;;4978416;28;43456;-71
2022/10/24 03:39:40;;;;;;;1.40;1.40;;;20.30;75.30;;;;;;4972925;28;43597;-72
2022/10/24 03:42:08;;;;;;;1.40;1.40;;;20.30;75.30;;;;;;4976842;28;43431;-71
2022/10/24 03:44:38;;;;;;;1.40;1.40;;;20.20;75.40;;;;;;4976733;28;43472;-70
2022/10/24 03:47:06;;;;;;;1.30;1.30;;;20.20;75.90;;;;;;4982299;28;43458;-72
2022/10/24 03:49:34;;;;;;;1.40;1.40;;;20.20;75.80;;;;;;4974575;28;43899;-70
2022/10/24 03:52:02;;;;;;;1.40;1.40;;;20.20;75.70;;;;;;4973559;28;44067;-71
2022/10/24 03:54:30;;;;;;;1.30;1.30;;;20.20;75.60;;;;;;4974916;28;43507;-71
2022/10/24 03:56:58;;;;;;;1.50;1.50;;;20.20;75.80;;;;;;4976987;28;43452;-72
2022/10/24 03:59:26;;;;;;;1.60;1.60;;;20.10;76.10;;;;;;4979951;28;43608;-72
2022/10/24 04:01:55;;;;;;;1.30;1.30;;;20.20;76.30;;;;;;4970952;28;43417;-71
2022/10/24 04:04:23;;;;;;;1.20;1.20;;;20.20;76.10;;;;;;4976325;28;43378;-71
2022/10/24 04:06:51;;;;;;;1.27;1.27;;;20.20;75.90;;;;;;4982552;28;43807;-72
2022/10/24 04:09:19;;;;;;;1.43;1.43;;;20.20;76.00;;;;;;4981469;28;43933;-71
2022/10/24 04:11:52;;;;;;;1.30;1.30;;;20.10;76.30;;;;;;4978590;28;43508;-71
2022/10/24 04:14:20;;;;;;;1.30;1.30;;;20.10;76.20;;;;;;4985634;28;43516;-72
2022/10/24 04:16:48;;;;;;;1.30;1.30;;;20.20;75.90;;;;;;4975619;28;44083;-71
2022/10/24 04:19:17;;;;;;;1.50;1.50;;;20.40;75.40;;;;;;4974724;28;43633;-71
2022/10/24 04:21:46;;;;;;;1.40;1.40;;;20.60;74.90;;;;;;4976654;28;43481;-70
2022/10/24 04:24:14;;;;;;;1.50;1.50;;;20.70;74.50;;;;;;4989482;28;43386;-72
2022/10/24 04:26:42;;;;;;;1.30;1.30;;;20.70;74.20;;;;;;4988048;28;43648;-70
2022/10/24 04:29:10;;;;;;;1.30;1.30;;;20.60;74.30;;;;;;4979930;28;43593;-72
2022/10/24 04:31:38;;;;;;;1.37;1.33;;;20.60;74.50;;;;;;4976081;28;43446;-73
2022/10/24 04:34:06;;;;;;;1.43;1.43;;;20.50;74.80;;;;;;4985604;28;43471;-72
2022/10/24 04:36:35;;;;;;;1.40;1.40;;;20.40;75.10;;;;;;4975763;28;43611;-71
2022/10/24 04:39:06;;;;;;;1.60;1.60;;;20.40;75.20;;;;;;4972680;28;43615;-71
2022/10/24 04:41:34;;;;;;;1.20;1.20;;;20.40;75.20;;;;;;4978223;28;43436;-70
2022/10/24 04:44:02;;;;;;;1.30;1.30;;;20.30;75.30;;;;;;4975477;28;43930;-71
2022/10/24 04:46:30;;;;;;;1.40;1.40;;;20.30;75.60;;;;;;4969654;28;43534;-72
2022/10/24 04:48:57;;;;;;;1.50;1.50;;;20.20;75.80;;;;;;4989568;28;45321;-71
2022/10/24 04:51:25;;;;;;;1.40;1.40;;;20.20;75.70;;;;;;4987618;28;45720;-72
2022/10/24 04:53:55;;;;;;;1.53;1.53;;;20.20;75.60;;;;;;4974417;28;43417;-72
2022/10/24 04:56:24;;;;;;;1.50;1.50;;;20.20;75.70;;;;;;4984936;28;43548;-71
2022/10/24 04:58:52;;;;;;;1.30;1.30;;;20.20;75.80;;;;;;4976682;28;44298;-71
2022/10/24 05:01:20;;;;;;;3.10;1.40;;;20.20;76.30;;;;;;4973346;28;43485;-70
2022/10/24 05:03:50;;;;;;;1.30;1.30;;;20.20;76.10;;;;;;4973659;28;43457;-71
2022/10/24 05:06:18;;;;;;;1.40;1.40;;;20.30;75.60;;;;;;4985105;28;43376;-69
2022/10/24 05:08:46;;;;;;;1.60;1.60;;;20.40;75.30;;;;;;4982045;28;43750;-70
2022/10/24 05:11:15;;;;;;;1.40;1.40;;;20.40;75.20;;;;;;4987644;28;43474;-71
2022/10/24 05:13:43;;;;;;;1.33;1.33;;;20.40;75.20;;;;;;4980964;28;43521;-71
2022/10/24 05:16:11;;;;;;;1.60;1.50;;;20.40;75.40;;;;;;4989282;28;43386;-72
2022/10/24 05:18:39;;;;;;;1.43;1.43;;;20.40;75.30;;;;;;4982837;28;44484;-71
2022/10/24 05:21:07;;;;;;;1.30;1.30;;;20.40;75.30;;;;;;4977390;28;43664;-70
2022/10/24 05:23:34;;;;;;;1.43;1.43;;;20.40;75.30;;;;;;4985371;28;43475;-71
2022/10/24 05:26:02;;;;;;;1.50;1.50;;;20.30;75.40;;;;;;4986383;28;43483;-70
2022/10/24 05:28:32;;;;;;;1.80;1.70;;;20.30;75.80;;;;;;4969485;28;46075;-72
2022/10/24 05:30:59;;;;;;;1.27;1.27;;;20.30;75.80;;;;;;4985495;28;43430;-70
2022/10/24 05:33:27;;;;;;;1.30;1.30;;;20.30;75.80;;;;;;4979109;28;44188;-71
2022/10/24 05:35:55;;;;;;;1.20;1.20;;;20.20;75.60;;;;;;4970812;28;43510;-72
2022/10/24 05:38:23;;;;;;;1.40;1.40;;;20.20;75.80;;;;;;4973582;28;43976;-70
2022/10/24 05:40:51;;;;;;;1.47;1.47;;;20.20;76.10;;;;;;4975232;28;43553;-70
2022/10/24 05:43:19;;;;;;;1.33;1.33;;;20.20;76.20;;;;;;4973958;28;43438;-72
2022/10/24 05:45:49;;;;;;;1.37;1.37;;;20.30;76.60;;;;;;4977821;28;43425;-71
2022/10/24 05:48:18;;;;;;;1.20;1.20;;;20.40;75.30;;;;;;4985235;28;44928;-70
2022/10/24 05:50:45;;;;;;;1.47;1.47;;;20.60;74.80;;;;;;4972515;28;43409;-71
2022/10/24 05:53:13;;;;;;;1.43;1.43;;;20.70;74.50;;;;;;4970374;28;43829;-71
2022/10/24 05:55:41;;;;;;;1.23;1.23;;;20.60;74.30;;;;;;4981245;28;43577;-71
2022/10/24 05:58:09;;;;;;;1.50;1.50;;;20.60;74.50;;;;;;4984661;28;44042;-71
2022/10/24 06:00:37;;;;;;;1.30;1.30;;;20.50;74.60;;;;;;4978629;28;44441;-70
2022/10/24 06:03:06;;;;;;;1.30;1.30;;;20.40;75.10;;;;;;4987533;28;43406;-71
2022/10/24 06:05:34;;;;;;;1.40;1.40;;;20.40;75.30;;;;;;4982710;28;43452;-72
2022/10/24 06:08:02;;;;;;;1.50;1.40;;;20.40;75.30;;;;;;4985063;28;43724;-72
2022/10/24 06:10:30;;;;;;;1.10;1.10;;;20.30;75.30;;;;;;4979585;28;43404;-70
2022/10/24 06:12:58;;;;;;;1.33;1.33;;;20.30;75.40;;;;;;4973526;28;43475;-71
2022/10/24 06:15:26;;;;;;;1.47;1.47;;;20.30;75.80;;;;;;4975585;28;43444;-71
2022/10/24 06:17:54;;;;;;;1.20;1.20;;;20.20;75.90;;;;;;4974641;28;45654;-71
2022/10/24 06:20:23;;;;;;;1.20;1.20;;;20.20;75.80;;;;;;4978848;28;43602;-72
2022/10/24 06:22:51;;;;;;;1.30;1.30;;;20.20;75.70;;;;;;4976399;28;43456;-71
2022/10/24 06:25:19;;;;;;;1.50;1.50;;;20.20;75.70;;;;;;4985472;28;43440;-72
2022/10/24 06:27:47;;;;;;;1.20;1.20;;;20.20;75.80;;;;;;4985660;28;43590;-71
2022/10/24 06:30:15;;;;;;;1.43;1.43;;;20.20;76.30;;;;;;4993847;28;43459;-71
2022/10/24 06:32:43;;;;;;;1.50;1.50;;;20.20;76.10;;;;;;4975834;28;43854;-71
2022/10/24 06:35:13;;;;;;;1.50;1.50;;;20.30;75.60;;;;;;4976745;28;43898;-72
2022/10/24 06:37:43;;;;;;;1.40;1.40;;;20.50;75.20;;;;;;4998632;28;43628;-71
2022/10/24 06:40:15;;;;;;;1.60;1.60;;;20.60;74.60;;;;;;4979339;28;45470;-71
2022/10/24 06:42:43;;;;;;;1.50;1.50;;;20.60;74.30;;;;;;4977264;28;43495;-72
2022/10/24 06:45:11;;;;;;;1.30;1.30;;;20.60;74.30;;;;;;4986210;28;43416;-71
2022/10/24 06:47:39;;;;;;;1.30;1.30;;;20.60;74.60;;;;;;4988317;28;43942;-71
2022/10/24 06:50:07;;;;;;;1.30;1.30;;;20.50;74.80;;;;;;4983539;28;44084;-72
2022/10/24 06:52:36;;;;;;;1.30;1.30;;;20.40;75.20;;;;;;4992928;28;43408;-71
2022/10/24 06:55:06;;;;;;;1.50;1.50;;;20.40;75.30;;;;;;4969853;28;43529;-70
2022/10/24 06:57:34;;;;;;;1.30;1.30;;;20.40;75.30;;;;;;4973030;28;45360;-71
2022/10/24 07:00:02;;;;;;;1.47;1.47;;;20.30;75.30;;;;;;4986440;28;43446;-71
2022/10/24 07:02:30;;;;;;;1.43;1.33;;;20.30;75.50;;;;;;4982842;28;43378;-71
2022/10/24 07:04:58;;;;;;;1.57;1.57;;;20.20;75.80;;;;;;4979199;28;43421;-73
2022/10/24 07:07:26;;;;;;;1.27;1.27;;;20.30;75.90;;;;;;4981312;28;46158;-71
2022/10/24 07:09:55;;;;;;;1.30;1.30;;;20.20;75.60;;;;;;4980953;28;43471;-71
2022/10/24 07:12:25;;;;;;;1.40;1.40;;;20.20;75.60;;;;;;4976695;28;43529;-70
2022/10/24 07:14:52;;;;;;;1.43;1.43;;;20.20;75.80;;;;;;4988556;28;43641;-71
2022/10/24 07:17:20;;;;;;;1.40;1.40;;;20.20;76.10;;;;;;4982320;28;43950;-71
2022/10/24 07:19:52;;;;;;;1.53;1.53;;;20.30;76.00;;;;;;4991687;28;44857;-70
2022/10/24 07:22:20;;;;;;;1.30;1.30;;;20.40;75.50;;;;;;4990241;28;43805;-71
2022/10/24 07:24:52;;;;;;;1.40;1.40;;;20.60;75.00;;;;;;4980090;28;43433;-71
2022/10/24 07:27:20;;;;;;;1.70;1.40;;;20.60;74.40;;;;;;4976391;28;43859;-72
2022/10/24 07:29:50;;;;;;;1.60;1.60;;;20.70;74.30;;;;;;4977430;28;43580;-71
2022/10/24 07:32:18;;;;;;;1.50;1.40;;;20.70;74.40;;;;;;4974141;28;43390;-70
2022/10/24 07:34:46;;;;;;;1.30;1.30;;;20.60;74.50;;;;;;4982430;28;43888;-71
2022/10/24 07:37:14;;;;;;;1.33;1.33;;;20.50;74.70;;;;;;4980035;28;43600;-71
2022/10/24 07:39:42;;;;;;;1.40;1.40;;;20.40;75.20;;;;;;4982669;28;43420;-71
2022/10/24 07:42:11;;;;;;;1.33;1.33;;;20.40;75.20;;;;;;4975764;28;43867;-70
2022/10/24 07:44:39;;;;;;;1.60;1.50;;;20.40;75.20;;;;;;4976953;28;43431;-71
2022/10/24 07:47:08;;;;;;;1.27;1.27;;;20.30;75.20;;;;;;4976508;28;43894;-72
2022/10/24 07:49:36;;;;;;;1.43;1.43;;;20.30;75.40;;;;;;4983030;28;44423;-72
2022/10/24 07:52:05;;;;;;;1.30;1.30;;;20.30;75.80;;;;;;4980534;28;43494;-71
2022/10/24 07:54:32;;;;;;;1.37;1.37;;;20.20;75.80;;;;;;4985163;28;43561;-71
2022/10/24 07:57:04;;;;;;;1.33;1.33;;;20.30;75.70;;;;;;4976495;28;43974;-71
2022/10/24 07:59:32;;;;;;;1.37;1.37;;;20.20;75.60;;;;;;4982571;28;43392;-71
2022/10/24 08:02:17;;;;;;;1.40;1.40;;;20.20;75.70;;;;;;4977993;28;43417;-71
2022/10/24 08:04:45;;;;;;;1.33;1.33;;;20.20;76.20;;;;;;4994442;28;43428;-71
2022/10/24 08:07:13;;;;;;;2.00;1.80;;;20.20;76.10;;;;;;4989361;28;43655;-70
2022/10/24 08:09:41;;;;;;;1.80;1.70;;;20.20;75.90;;;;;;4982139;28;43481;-71
2022/10/24 08:12:09;;;;;;;1.70;1.70;;;20.20;75.80;;;;;;4980223;28;43384;-70
2022/10/24 08:14:37;;;;;;;1.90;1.80;;;20.20;75.90;;;;;;4987971;28;43448;-71
2022/10/24 08:17:05;;;;;;;2.57;1.97;;;20.10;76.10;;;;;;4970452;28;43970;-72
2022/10/24 08:19:34;;;;;;;1.80;1.80;;;20.20;76.10;;;;;;4981300;28;43520;-71
2022/10/24 08:22:02;;;;;;;2.20;2.10;;;20.30;75.70;;;;;;4979573;28;43944;-71
2022/10/24 08:24:30;;;;;;;2.10;2.00;;;20.50;75.20;;;;;;4970629;28;43509;-72
2022/10/24 08:26:59;;;;;;;2.00;1.90;;;20.60;74.60;;;;;;4984140;28;43861;-72
2022/10/24 08:29:26;;;;;;;2.00;1.90;;;20.70;74.20;;;;;;4980903;28;43487;-71
2022/10/24 08:31:55;;;;;;;1.90;1.80;;;20.70;74.10;;;;;;4977809;28;43425;-70
2022/10/24 08:34:23;;;;;;;1.77;1.67;;;20.60;74.20;;;;;;4978666;28;43923;-71
2022/10/24 08:36:52;;;;;;;2.00;1.90;;;20.60;74.50;;;;;;4984126;28;44249;-72
2022/10/24 08:39:20;;;;;;;2.30;2.20;;;20.40;74.90;;;;;;4971160;28;45232;-71
2022/10/24 08:41:50;;;;;;;1.93;1.70;;;20.40;75.10;;;;;;4985025;28;43443;-72
2022/10/24 08:44:21;;;;;;;1.60;1.60;;;20.40;75.20;;;;;;4972183;28;43525;-70
2022/10/24 08:46:52;;;;;;;1.70;1.70;;;20.40;75.20;;;;;;4975448;28;44051;-70
2022/10/24 08:49:24;;;;;;;2.10;2.00;;;20.30;75.30;;;;;;4980477;28;43500;-72
2022/10/24 08:51:55;;;;;;;2.10;2.00;;;20.30;75.70;;;;;;4982724;28;43538;-70
2022/10/24 08:54:25;;;;;;;2.00;1.93;;;20.20;75.80;;;;;;4972541;28;43338;-71
2022/10/24 08:56:56;;;;;;;1.77;1.67;;;20.30;75.70;;;;;;4982718;28;43930;-72
2022/10/24 08:59:25;;;;;;;1.80;1.70;;;20.20;75.60;;;;;;4976430;28;43410;-71
2022/10/24 09:01:55;;;;;;;1.90;1.80;;;20.20;75.80;;;;;;4971183;28;43485;-70
2022/10/24 09:04:30;;;;;;;2.00;1.90;;;20.20;76.00;;;;;;4985217;28;43616;-71
2022/10/24 09:07:00;;;;;;;2.27;2.07;;;20.20;76.20;;;;;;4978956;28;43810;-73
2022/10/24 09:09:30;;;;;;;1.67;1.63;;;20.30;75.90;;;;;;4986939;28;43463;-70
2022/10/24 09:12:00;;;;;;;1.73;1.63;;;20.40;75.30;;;;;;4979312;28;43461;-70
2022/10/24 09:14:28;;;;;;;2.10;2.00;;;20.60;74.80;;;;;;4974312;28;43457;-72
2022/10/24 09:16:57;;;;;;;2.10;2.00;;;20.60;74.40;;;;;;4992414;28;43835;-72
2022/10/24 09:19:27;;;;;;;1.93;1.83;;;20.60;75.00;;;;;;4989070;28;43509;-71
2022/10/24 09:21:55;;;;;;;1.93;1.90;;;20.60;74.50;;;;;;4980080;28;43483;-71
2022/10/24 09:24:37;;;;;;;2.10;2.00;;;20.50;74.70;;;;;;4975486;28;43544;-70
2022/10/24 09:27:07;;;;;;;1.80;1.80;;;20.40;75.00;;;;;;4981367;28;44194;-71
2022/10/24 09:29:35;;;;;;;1.83;1.83;;;20.40;75.50;;;;;;4979978;28;44202;-70
2022/10/24 09:32:03;;;;;;;1.80;1.80;;;20.30;75.40;;;;;;4985394;28;43417;-71
2022/10/24 09:34:30;;;;;;;1.70;1.70;;;20.30;75.50;;;;;;4980622;28;43492;-71
2022/10/24 09:36:58;;;;;;;2.03;1.93;;;20.30;75.70;;;;;;4969724;28;43651;-72
2022/10/24 09:39:29;;;;;;;2.10;2.00;;;20.30;75.90;;;;;;4973580;28;43434;-71
2022/10/24 09:41:57;;;;;;;1.90;1.90;;;20.20;76.00;;;;;;4970579;28;43446;-71
2022/10/24 09:44:33;;;;;;;2.17;2.07;;;20.30;76.00;;;;;;4986959;28;43567;-72
2022/10/24 09:47:02;;;;;;;1.77;1.70;;;20.20;76.00;;;;;;4983683;28;43969;-71
2022/10/24 09:49:33;;;;;;;1.80;1.80;;;20.20;76.00;;;;;;4971608;28;43496;-70
2022/10/24 09:52:03;;;;;;;1.77;1.73;;;20.20;76.10;;;;;;4985384;28;43455;-71
2022/10/24 09:54:33;;;;;;;2.23;2.13;;;20.20;76.30;;;;;;4974425;28;43460;-71
2022/10/24 09:57:04;;;;;;;2.33;2.23;;;20.20;76.00;;;;;;4980124;28;43954;-71
2022/10/24 09:59:40;;;;;;;1.73;1.70;;;20.40;75.60;;;;;;4978457;28;44633;-71
2022/10/24 10:02:24;;;;;;;2.00;1.80;;;20.50;75.00;;;;;;4982808;28;43532;-71
2022/10/24 10:05:15;;;;;;;1.93;1.80;;;20.60;74.60;;;;;;4977742;28;43912;-71
2022/10/24 10:07:47;;;;;;;1.77;1.77;;;20.60;74.60;;;;;;4971721;28;43961;-72
2022/10/24 10:10:31;;;;;;;1.70;1.70;;;20.60;75.00;;;;;;4972405;28;43405;-71
2022/10/24 10:13:04;;;;;;;1.83;1.73;;;20.50;75.30;;;;;;4978949;28;44149;-72
2022/10/24 10:15:34;;;;;;;1.50;1.50;;;20.40;75.50;;;;;;4974706;28;43464;-72
2022/10/24 10:18:04;;;;;;;1.80;1.80;;;20.40;75.50;;;;;;4989082;28;43849;-71
2022/10/24 10:20:35;;;;;;;1.90;1.80;;;20.40;75.70;;;;;;4971912;28;43815;-71
2022/10/24 10:23:16;;;;;;;1.70;1.70;;;20.30;75.70;;;;;;4986391;28;43501;-71
2022/10/24 10:25:46;;;;;;;2.03;1.93;;;20.30;75.90;;;;;;4985585;28;43615;-72
2022/10/24 10:28:20;;;;;;;1.80;1.70;;;20.20;76.10;;;;;;4971553;28;43867;-71
2022/10/24 10:30:50;;;;;;;1.80;1.70;;;20.30;76.10;;;;;;4977084;28;44815;-71
2022/10/24 10:33:20;;;;;;;2.07;1.97;;;20.40;75.80;;;;;;4995017;28;43433;-72
2022/10/24 10:35:50;;;;;;;1.77;1.67;;;20.40;75.30;;;;;;4983011;28;43481;-70
2022/10/24 10:38:33;;;;;;;2.40;1.80;;;20.50;75.30;;;;;;4993061;28;43882;-72
2022/10/24 10:41:05;;;;;;;2.00;1.90;;;20.40;75.30;;;;;;4984458;28;43568;-70
2022/10/24 10:43:35;;;;;;;1.67;1.67;;;20.40;75.40;;;;;;4994510;28;43392;-71
2022/10/24 10:46:13;;;;;;;2.17;2.07;;;20.40;75.30;;;;;;4975584;28;43936;-72
2022/10/24 10:48:48;;;;;;;1.70;1.70;;;20.40;75.50;;;;;;4975485;28;44268;-72
2022/10/24 10:51:18;;;;;;;2.10;2.00;;;20.40;75.60;;;;;;4984503;28;43499;-71
2022/10/24 10:53:49;;;;;;;2.03;1.93;;;20.30;75.60;;;;;;4979867;28;43992;-71
2022/10/24 10:56:27;;;;;;;2.10;2.00;;;20.30;75.90;;;;;;4985226;28;43395;-71
2022/10/24 10:59:02;;;;;;;1.90;1.80;;;20.30;75.80;;;;;;4984444;28;43862;-70
2022/10/24 11:01:34;;;;;;;1.60;1.60;;;20.30;75.90;;;;;;4978771;28;43444;-71
2022/10/24 11:04:04;;;;;;;2.20;2.10;;;20.30;76.00;;;;;;4979615;28;43450;-71
2022/10/24 11:06:38;;;;;;;1.93;1.90;;;20.20;76.10;;;;;;4981939;28;44064;-70
2022/10/24 11:09:18;;;;;;;1.70;1.70;;;20.20;76.10;;;;;;4987139;28;45920;-70
2022/10/24 11:11:48;;;;;;;1.87;1.87;;;20.20;76.10;;;;;;4984926;28;43581;-71
2022/10/24 11:14:23;;;;;;;1.70;1.70;;;20.20;76.10;;;;;;4988873;28;43458;-71
2022/10/24 11:16:51;;;;;;;1.60;1.60;;;20.20;76.10;;;;;;4993147;28;43412;-70
2022/10/24 11:19:23;;;;;;;2.07;1.97;;;20.20;76.20;;;;;;4976571;28;45129;-72
2022/10/24 11:21:50;;;;;;;1.97;1.87;;;20.20;76.40;;;;;;4976198;28;43517;-70
2022/10/24 11:24:20;;;;;;;1.73;1.73;;;20.30;76.20;;;;;;4979469;28;43441;-71
2022/10/24 11:26:52;;;;;;;2.07;1.97;;;20.40;75.70;;;;;;4983530;28;43474;-71
2022/10/24 11:29:23;;;;;;;2.07;2.07;;;20.50;75.10;;;;;;4991357;28;43611;-72
2022/10/24 11:31:53;;;;;;;1.70;1.70;;;20.60;74.60;;;;;;4981846;28;43416;-72
2022/10/24 11:34:24;;;;;;;1.80;1.80;;;20.60;74.40;;;;;;4987688;28;43373;-71
2022/10/24 11:36:53;;;;;;;1.90;1.80;;;20.60;74.60;;;;;;4989731;28;43352;-71
2022/10/24 11:39:24;;;;;;;1.50;1.50;;;20.60;74.90;;;;;;4989248;28;44438;-70
2022/10/24 11:41:55;;;;;;;1.87;1.77;;;20.50;75.20;;;;;;4981060;28;43460;-71
2022/10/24 11:44:38;;;;;;;2.00;1.90;;;20.40;75.40;;;;;;4982631;28;43466;-71
2022/10/24 11:47:26;;;;;;;1.97;1.73;;;20.40;75.50;;;;;;4983605;28;43425;-71
2022/10/24 11:49:58;;;;;;;1.30;1.30;;;20.40;75.60;;;;;;4969977;28;43610;-70
2022/10/24 11:52:27;;;;;;;1.70;1.60;;;20.30;75.70;;;;;;4978600;28;43446;-71
2022/10/24 11:54:56;;;;;;;1.77;1.70;;;20.30;75.90;;;;;;4978104;28;43440;-71
2022/10/24 11:57:27;;;;;;;1.60;1.60;;;20.30;76.10;;;;;;4977783;28;43437;-70
2022/10/24 11:59:55;;;;;;;1.57;1.50;;;20.30;76.00;;;;;;4982052;28;43910;-70
2022/10/24 12:02:48;;;;;;;1.60;1.60;;;20.30;76.10;;;;;;4990901;28;43583;-70
2022/10/24 12:05:24;;;;;;;1.60;1.60;;;20.30;76.20;;;;;;4976721;28;43378;-72
2022/10/24 12:08:12;;;;;;;1.50;1.50;;;20.20;76.20;;;;;;4979925;28;43915;-72
2022/10/24 12:10:53;;;;;;;1.70;1.70;;;20.20;76.30;;;;;;4981749;28;44006;-72
2022/10/24 12:13:31;;;;;;;1.37;1.37;;;20.30;76.10;;;;;;4986794;28;43467;-71
2022/10/24 12:16:04;;;;;;;1.90;1.80;;;20.40;75.50;;;;;;4988922;28;43504;-72
2022/10/24 12:18:33;;;;;;;1.57;1.57;;;20.50;75.30;;;;;;4979285;28;43448;-71
2022/10/24 12:21:02;;;;;;;1.70;1.70;;;20.50;75.40;;;;;;4980804;28;43601;-70
2022/10/24 12:23:31;;;;;;;1.50;1.50;;;20.40;75.50;;;;;;4976538;28;43991;-72
2022/10/24 12:26:03;;;;;;;1.50;1.50;;;20.40;75.40;;;;;;4981668;28;43970;-70
2022/10/24 12:28:33;;;;;;;1.50;1.50;;;20.50;75.50;;;;;;4974544;28;43472;-70
2022/10/24 12:31:19;;;;;;;1.40;1.40;;;20.40;75.60;;;;;;4983198;28;43789;-70
2022/10/24 12:34:33;;;;;;;1.53;1.53;;;20.40;75.70;;;;;;4972762;28;43410;-72
2022/10/24 12:37:07;;;;;;;1.70;1.60;;;20.40;75.90;;;;;;4976817;28;43500;-70
2022/10/24 12:39:35;;;;;;;1.30;1.30;;;20.30;75.80;;;;;;4991399;28;43437;-70
2022/10/24 12:42:03;;;;;;;1.43;1.43;;;20.40;75.90;;;;;;4975148;28;44058;-71
2022/10/24 12:44:50;;;;;;;1.60;1.60;;;20.30;75.90;;;;;;4991471;28;43608;-73
2022/10/24 12:47:33;;;;;;;1.80;1.70;;;20.30;75.90;;;;;;4979533;28;43444;-71
2022/10/24 12:50:34;;;;;;;1.53;1.53;;;20.20;76.00;;;;;;4993897;28;43503;-71
2022/10/24 12:53:03;;;;;;;1.30;1.30;;;20.30;76.20;;;;;;4979288;28;43876;-73
2022/10/24 12:55:52;;;;;;;1.30;1.30;;;20.40;75.70;;;;;;4983888;28;43528;-72
2022/10/24 12:58:22;;;;;;;1.30;1.30;;;20.50;75.10;;;;;;4982184;28;43509;-72
2022/10/24 13:00:54;;;;;;;1.70;1.70;;;20.60;74.60;;;;;;4982417;28;44018;-69
2022/10/24 13:03:28;;;;;;;1.43;1.43;;;20.70;74.50;;;;;;4980326;28;43839;-71
2022/10/24 13:05:58;;;;;;;1.47;1.47;;;20.60;74.60;;;;;;4980480;28;43370;-71